TimePST,TemperatureF,Dew PointF,Humidity,Sea Level PressureIn,VisibilityMPH,Wind Direction,Wind SpeedMPH,Gust SpeedMPH,PrecipitationIn,Events,Conditions,WindDirDegrees,DateUTC
12:10 AM,59.0,57.2,94,30.06,8.0,SSE,10.4,-,N/A,,Overcast,160,2012-11-21 08:10:00
12:30 AM,60.8,57.2,88,30.05,3.0,South,11.5,-,N/A,Rain,Light Rain,170,2012-11-21 08:30:00
12:50 AM,60.8,57.2,88,30.05,10.0,SSE,8.1,-,N/A,,Mostly Cloudy,160,2012-11-21 08:50:00
1:10 AM,59.0,57.2,94,30.05,3.0,SSE,9.2,-,N/A,Rain,Light Rain,160,2012-11-21 09:10:00
1:30 AM,59.0,57.2,94,30.05,5.0,South,6.9,-,N/A,,Overcast,170,2012-11-21 09:30:00
1:50 AM,59.0,57.2,94,30.05,5.0,Calm,Calm,-,N/A,Rain,Light Rain,0,2012-11-21 09:50:00
2:10 AM,59.0,59.0,100,30.06,2.0,Calm,Calm,-,N/A,Rain,Light Rain,0,2012-11-21 10:10:00
2:30 AM,59.0,57.2,94,30.06,2.0,Calm,Calm,-,0.01,Rain,Light Rain,0,2012-11-21 10:30:00
2:50 AM,59.0,57.2,94,30.05,1.8,Calm,Calm,-,0.03,Rain,Light Rain,0,2012-11-21 10:50:00
3:10 AM,59.0,59.0,100,30.05,2.5,Calm,Calm,-,N/A,Rain,Light Rain,0,2012-11-21 11:10:00
3:30 AM,59.0,59.0,100,30.05,2.0,North,3.5,-,N/A,Rain,Light Rain,350,2012-11-21 11:30:00
3:50 AM,59.0,59.0,100,30.05,2.0,NE,3.5,-,0.04,Rain,Light Rain,40,2012-11-21 11:50:00
4:10 AM,59.0,59.0,100,30.05,2.5,NNE,4.6,-,N/A,Rain,Light Rain,30,2012-11-21 12:10:00
4:30 AM,59.0,59.0,100,30.05,1.8,NNE,4.6,-,0.06,Rain,Rain,20,2012-11-21 12:30:00
4:50 AM,59.0,57.2,94,30.06,1.8,Calm,Calm,-,0.09,Rain,Rain,0,2012-11-21 12:50:00
5:10 AM,59.0,57.2,94,30.07,3.0,Calm,Calm,-,N/A,Rain,Light Rain,0,2012-11-21 13:10:00
5:30 AM,57.2,57.2,100,30.08,1.5,Calm,Calm,-,N/A,Rain,Light Rain,0,2012-11-21 13:30:00
5:50 AM,57.2,57.2,100,30.09,6.0,NNW,3.5,-,0.01,,Overcast,330,2012-11-21 13:50:00
6:10 AM,57.2,57.2,100,30.10,7.0,Calm,Calm,-,N/A,,Overcast,0,2012-11-21 14:10:00
6:30 AM,57.2,57.2,100,30.10,5.0,Calm,Calm,-,N/A,,Overcast,0,2012-11-21 14:30:00
6:50 AM,57.2,57.2,100,30.12,6.0,Calm,Calm,-,N/A,Rain,Light Rain,0,2012-11-21 14:50:00
6:52 AM,57.2,57.2,100,30.12,3.0,Calm,Calm,-,N/A,Rain,Light Rain,0,2012-11-21 14:52:00
7:09 AM,57.2,57.2,100,30.12,2.0,Calm,Calm,-,N/A,Rain,Light Rain,0,2012-11-21 15:09:00
7:52 AM,57.2,57.2,100,30.15,7.0,Calm,Calm,-,N/A,,Mostly Cloudy,0,2012-11-21 15:52:00
8:50 AM,59.0,57.2,94,30.17,10.0,Calm,Calm,-,N/A,,Mostly Cloudy,0,2012-11-21 16:50:00
9:55 AM,60.8,57.2,88,30.19,10.0,West,8.1,-,N/A,,Mostly Cloudy,280,2012-11-21 17:55:00
10:57 AM,62.6,53.6,72,30.19,10.0,WNW,8.1,-,N/A,,Mostly Cloudy,300,2012-11-21 18:57:00
11:47 AM,64.4,51.8,64,30.18,10.0,NW,5.8,-,N/A,,Mostly Cloudy,310,2012-11-21 19:47:00
1:47 PM,64.4,50.0,59,30.16,10.0,WNW,10.4,-,N/A,,Mostly Cloudy,300,2012-11-21 21:47:00
2:55 PM,62.6,48.2,59,30.17,10.0,WNW,11.5,-,N/A,,Mostly Cloudy,290,2012-11-21 22:55:00
3:50 PM,62.6,44.6,52,30.17,10.0,WNW,11.5,-,N/A,,Mostly Cloudy,300,2012-11-21 23:50:00
4:47 PM,59.0,48.2,67,30.17,10.0,West,11.5,-,N/A,,Mostly Cloudy,280,2012-11-22 00:47:00
5:47 PM,57.2,46.4,67,30.18,10.0,West,6.9,-,N/A,,Scattered Clouds,280,2012-11-22 01:47:00
6:48 PM,55.4,41.0,58,30.19,10.0,West,6.9,-,N/A,,Clear,270,2012-11-22 02:48:00
7:49 PM,55.4,46.4,72,30.20,10.0,WNW,5.8,-,N/A,,Clear,290,2012-11-22 03:49:00
8:47 PM,53.6,46.4,77,30.20,10.0,Calm,Calm,-,N/A,,Clear,0,2012-11-22 04:47:00
9:10 PM,53.6,46.4,77,30.21,10.0,Calm,Calm,-,N/A,,Clear,0,2012-11-22 05:10:00
9:30 PM,53.6,46.4,77,30.22,10.0,Calm,Calm,-,N/A,,Clear,0,2012-11-22 05:30:00
9:50 PM,53.6,46.4,77,30.22,10.0,SW,3.5,-,N/A,,Clear,230,2012-11-22 05:50:00
10:10 PM,51.8,46.4,82,30.22,10.0,West,3.5,-,N/A,,Clear,260,2012-11-22 06:10:00
10:30 PM,51.8,46.4,82,30.22,10.0,Calm,Calm,-,N/A,,Clear,0,2012-11-22 06:30:00
10:50 PM,50.0,46.4,87,30.22,10.0,Calm,Calm,-,N/A,,Clear,0,2012-11-22 06:50:00
11:10 PM,50.0,44.6,82,30.22,10.0,Calm,Calm,-,N/A,,Clear,0,2012-11-22 07:10:00
11:30 PM,48.2,44.6,87,30.22,10.0,Calm,Calm,-,N/A,,Clear,0,2012-11-22 07:30:00
11:50 PM,48.2,44.6,87,30.22,10.0,SW,4.6,-,N/A,,Clear,230,2012-11-22 07:50:00